createdAt,value
2024-02-26T00:00:26.438Z,100004.59
2024-02-26T00:02:52.943Z,100006.34
2024-02-26T00:05:19.382Z,100009.84
2024-02-26T00:07:46.235Z,100009.75
2024-02-26T00:10:12.812Z,100012.44
2024-02-26T00:12:40.420Z,100016.78
2024-02-26T00:15:11.544Z,100019.13
2024-02-26T00:17:38.598Z,100018.53
2024-02-26T00:20:09.452Z,100019.84
2024-02-26T00:22:36.372Z,100018.22
2024-02-26T00:25:02.957Z,100019.91
2024-02-26T00:27:29.513Z,100026.84
2024-02-26T00:29:55.990Z,100023.25
2024-02-26T00:32:22.524Z,100020.75
2024-02-26T00:34:49.172Z,100021.56
2024-02-26T00:37:15.639Z,100022.75
2024-02-26T00:39:42.152Z,100023.63
2024-02-26T00:42:09.191Z,100020.28
2024-02-26T00:44:35.914Z,100018.78
2024-02-26T00:47:03.074Z,100022.41
2024-02-26T00:49:29.641Z,100026.25
2024-02-26T00:51:56.833Z,100025.25
2024-02-26T00:54:23.340Z,100028.59
2024-02-26T00:56:49.863Z,100025.13
2024-02-26T00:59:16.394Z,100031.19
2024-02-26T01:01:42.856Z,100027.06
2024-02-26T01:04:09.409Z,100021.06
2024-02-26T01:06:36.218Z,100022.81
2024-02-26T01:09:02.845Z,100029.00
2024-02-26T01:11:29.414Z,100024.72
2024-02-26T01:13:57.784Z,100026.41
2024-02-26T01:16:24.819Z,100019.41
2024-02-26T01:18:51.380Z,100020.25
2024-02-26T01:21:17.986Z,100028.13
2024-02-26T01:23:44.579Z,100023.97
2024-02-26T01:26:11.863Z,100023.13
2024-02-26T01:28:38.365Z,100019.78
2024-02-26T01:31:07.838Z,100012.09
2024-02-26T01:33:34.623Z,100011.03
2024-02-26T01:36:02.061Z,100015.31
2024-02-26T01:38:29.006Z,100004.09
2024-02-26T01:40:55.689Z,100006.78
2024-02-26T01:43:22.200Z,100008.59
2024-02-26T01:45:48.661Z,100012.03
2024-02-26T01:48:15.340Z,100008.38
2024-02-26T01:50:42.344Z,100008.31
2024-02-26T01:53:10.351Z,100008.38
2024-02-26T01:55:37.272Z,100016.13
2024-02-26T01:58:03.964Z,100016.88
2024-02-26T02:00:30.639Z,100029.00
2024-02-26T02:02:57.559Z,100029.75
2024-02-26T02:05:24.488Z,100024.66
2024-02-26T02:07:52.409Z,100027.06
2024-02-26T02:10:23.862Z,100032.41
2024-02-26T02:12:50.620Z,100029.00
2024-02-26T02:15:17.173Z,100021.25
2024-02-26T02:17:44.023Z,100028.91
2024-02-26T02:20:16.179Z,100031.34
2024-02-26T02:22:42.720Z,100032.34
2024-02-26T02:25:09.359Z,100034.06
2024-02-26T02:27:35.950Z,100038.28
2024-02-26T02:30:03.649Z,100042.53
2024-02-26T02:32:30.601Z,100043.38
2024-02-26T02:34:57.893Z,100047.72
2024-02-26T02:37:24.392Z,100055.41
2024-02-26T02:39:50.843Z,100054.47
2024-02-26T02:42:17.330Z,100057.75
2024-02-26T02:44:45.713Z,100057.69
2024-02-26T02:47:12.382Z,100065.28
2024-02-26T02:49:39.024Z,100067.72
2024-02-26T02:52:05.750Z,100066.06
2024-02-26T02:54:32.456Z,100070.53
2024-02-26T02:56:58.947Z,100074.88
2024-02-26T02:59:26.559Z,100080.22
2024-02-26T03:01:53.751Z,100074.06
2024-02-26T03:04:20.250Z,100076.41
2024-02-26T03:06:46.849Z,100082.34
2024-02-26T03:09:13.504Z,100090.03
2024-02-26T03:11:41.050Z,100093.75
2024-02-26T03:14:07.764Z,100094.59
2024-02-26T03:16:34.815Z,100102.47
2024-02-26T03:19:01.385Z,100105.81
2024-02-26T03:21:28.485Z,100107.47
2024-02-26T03:23:55.017Z,100106.63
2024-02-26T03:26:22.521Z,100111.03
2024-02-26T03:28:49.038Z,100108.47
2024-02-26T03:31:15.954Z,100111.13
2024-02-26T03:33:42.593Z,100118.19
2024-02-26T03:36:09.482Z,100123.53
2024-02-26T03:38:36.045Z,100121.69
2024-02-26T03:41:02.507Z,100119.13
2024-02-26T03:43:28.994Z,100121.75
2024-02-26T03:45:55.507Z,100121.00
2024-02-26T03:48:22.096Z,100127.22
2024-02-26T03:50:48.651Z,100126.41
2024-02-26T03:53:15.207Z,100127.41
2024-02-26T03:55:43.005Z,100121.44
2024-02-26T03:58:10.141Z,100124.03
2024-02-26T04:00:37.015Z,100130.81
2024-02-26T04:03:03.738Z,100123.22
2024-02-26T04:05:30.196Z,100126.63
2024-02-26T04:07:56.776Z,100127.47
2024-02-26T04:10:23.293Z,100129.22
2024-02-26T04:12:49.782Z,100136.06
2024-02-26T04:15:16.268Z,100141.31
2024-02-26T04:17:43.285Z,100138.03
2024-02-26T04:20:15.256Z,100142.28
2024-02-26T04:22:41.723Z,100137.22
2024-02-26T04:25:08.643Z,100143.28
2024-02-26T04:27:35.305Z,100140.56
2024-02-26T04:30:01.885Z,100151.56
2024-02-26T04:32:29.099Z,100144.59
2024-02-26T04:34:55.603Z,100150.63
2024-02-26T04:37:22.065Z,100156.69
2024-02-26T04:39:51.172Z,100161.88
2024-02-26T04:42:17.984Z,100164.63
2024-02-26T04:44:44.574Z,100163.91
2024-02-26T04:47:11.759Z,100158.56
2024-02-26T04:49:38.331Z,100160.97
2024-02-26T04:52:05.292Z,100164.22
2024-02-26T04:54:31.694Z,100162.50
2024-02-26T04:56:58.213Z,100168.50
2024-02-26T04:59:24.680Z,100166.75
2024-02-26T05:01:53.722Z,100179.69
2024-02-26T05:04:20.426Z,100179.69
2024-02-26T05:06:47.067Z,100172.09
2024-02-26T05:09:13.711Z,100182.56
2024-02-26T05:11:42.148Z,100178.22
2024-02-26T05:14:10.026Z,100172.16
2024-02-26T05:16:36.461Z,100184.09
2024-02-26T05:19:03.943Z,100177.25
2024-02-26T05:21:30.634Z,100181.50
2024-02-26T05:23:57.237Z,100189.44
2024-02-26T05:26:24.137Z,100171.22
2024-02-26T05:28:51.428Z,100179.84
2024-02-26T05:31:19.187Z,100182.44
2024-02-26T05:33:46.304Z,100197.19
2024-02-26T05:36:23.261Z,100198.78
2024-02-26T05:38:50.131Z,100192.03
2024-02-26T05:41:17.821Z,100190.25
2024-02-26T05:43:44.442Z,100185.22
2024-02-26T05:46:10.969Z,100199.97
2024-02-26T05:48:37.557Z,100206.13
2024-02-26T05:51:05.582Z,100206.78
2024-02-26T05:53:32.060Z,100211.03
2024-02-26T05:55:58.525Z,100211.97
2024-02-26T05:58:25.050Z,100209.38
2024-02-26T06:00:51.687Z,100215.44
2024-02-26T06:03:18.327Z,100222.44
2024-02-26T06:05:45.089Z,100222.50
2024-02-26T06:08:11.634Z,100232.00
2024-02-26T06:10:38.211Z,100225.94
2024-02-26T06:13:04.873Z,100219.91
2024-02-26T06:15:31.594Z,100231.88
2024-02-26T06:17:58.176Z,100236.13
2024-02-26T06:20:24.892Z,100239.56
2024-02-26T06:22:52.297Z,100243.78
2024-02-26T06:25:18.803Z,100250.00
2024-02-26T06:27:45.246Z,100249.84
2024-02-26T06:30:12.436Z,100245.50
2024-02-26T06:32:39.308Z,100249.13
2024-02-26T06:35:09.086Z,100254.19
2024-02-26T06:37:36.132Z,100258.53
2024-02-26T06:40:05.157Z,100253.41
2024-02-26T06:42:31.838Z,100254.25
2024-02-26T06:44:58.419Z,100263.78
2024-02-26T06:47:24.895Z,100270.53
2024-02-26T06:49:51.470Z,100276.66
2024-02-26T06:52:17.939Z,100274.06
2024-02-26T06:54:44.424Z,100284.41
2024-02-26T06:57:10.908Z,100274.75
2024-02-26T06:59:37.512Z,100281.66
2024-02-26T07:02:04.192Z,100286.72
2024-02-26T07:04:32.441Z,100286.72
2024-02-26T07:06:58.981Z,100288.38
2024-02-26T07:09:26.295Z,100297.13
2024-02-26T07:11:52.899Z,100296.91
2024-02-26T07:14:19.380Z,100304.69
2024-02-26T07:16:45.846Z,100306.44
2024-02-26T07:19:12.326Z,100314.31
2024-02-26T07:21:38.808Z,100312.38
2024-02-26T07:24:05.572Z,100315.81
2024-02-26T07:26:32.126Z,100326.16
2024-02-26T07:28:59.108Z,100325.31
2024-02-26T07:31:25.518Z,100323.78
2024-02-26T07:33:52.587Z,100316.69
2024-02-26T07:36:19.242Z,100327.16
2024-02-26T07:38:47.022Z,100322.88
2024-02-26T07:41:14.939Z,100331.19
2024-02-26T07:43:42.162Z,100327.06
2024-02-26T07:46:08.778Z,100326.88
2024-02-26T07:48:35.999Z,100331.97
2024-02-26T07:51:04.422Z,100342.59
2024-02-26T07:53:31.455Z,100338.28
2024-02-26T07:55:58.134Z,100351.06
2024-02-26T07:58:24.874Z,100351.22
2024-02-26T08:00:51.761Z,100359.88
2024-02-26T08:03:18.451Z,100359.88
2024-02-26T08:05:45.151Z,100368.47
2024-02-26T08:08:11.890Z,100367.50
2024-02-26T08:10:38.478Z,100367.25
2024-02-26T08:13:07.731Z,100373.09
2024-02-26T08:15:35.621Z,100380.19
2024-02-26T08:18:04.660Z,100380.75
2024-02-26T08:20:31.983Z,100379.88
2024-02-26T08:22:58.525Z,100384.94
2024-02-26T08:25:25.728Z,100389.19
2024-02-26T08:27:52.224Z,100386.59
2024-02-26T08:30:18.954Z,100389.41
2024-02-26T08:32:52.053Z,100399.63
2024-02-26T08:35:20.050Z,100397.06
2024-02-26T08:37:47.656Z,100403.00
2024-02-26T08:40:15.170Z,100406.38
2024-02-26T08:42:41.765Z,100401.88
2024-02-26T08:45:09.441Z,100421.03
2024-02-26T08:47:36.105Z,100412.31
2024-02-26T08:50:03.122Z,100416.41
2024-02-26T08:52:29.594Z,100425.03
2024-02-26T08:54:56.068Z,100423.63
2024-02-26T08:57:22.603Z,100422.84
2024-02-26T08:59:49.141Z,100430.72
2024-02-26T09:02:15.706Z,100440.34
2024-02-26T09:04:42.310Z,100442.78
2024-02-26T09:07:08.888Z,100440.34
2024-02-26T09:09:35.573Z,100438.75
2024-02-26T09:12:02.196Z,100447.13
2024-02-26T09:14:28.885Z,100452.25
2024-02-26T09:16:55.576Z,100450.44
2024-02-26T09:19:22.118Z,100455.72
2024-02-26T09:21:48.707Z,100445.19
2024-02-26T09:24:15.973Z,100451.47
2024-02-26T09:26:42.660Z,100461.84
2024-02-26T09:29:09.667Z,100469.44
2024-02-26T09:31:36.278Z,100464.16
2024-02-26T09:34:03.412Z,100466.81
2024-02-26T09:36:30.145Z,100471.09
2024-02-26T09:39:00.981Z,100471.97
2024-02-26T09:41:32.023Z,100477.03
2024-02-26T09:44:00.517Z,100487.47
2024-02-26T09:46:27.234Z,100484.94
2024-02-26T09:48:54.569Z,100490.94
2024-02-26T09:51:26.073Z,100485.69
2024-02-26T09:53:54.056Z,100499.38
2024-02-26T09:56:21.367Z,100488.34
2024-02-26T09:58:50.311Z,100494.38
2024-02-26T10:01:20.939Z,100499.56
2024-02-26T10:03:56.167Z,100511.59
2024-02-26T10:06:22.895Z,100506.69
2024-02-26T10:08:49.666Z,100501.44
2024-02-26T10:11:16.992Z,100511.03
2024-02-26T10:13:43.494Z,100515.38
2024-02-26T10:16:10.913Z,100516.31
2024-02-26T10:18:58.842Z,100526.25
2024-02-26T10:21:27.094Z,100526.25
2024-02-26T10:23:53.904Z,100534.94
2024-02-26T10:26:21.214Z,100537.47
2024-02-26T10:28:51.248Z,100538.41
2024-02-26T10:31:20.513Z,100544.41
2024-02-26T10:33:47.443Z,100547.84
2024-02-26T10:36:14.353Z,100557.09
2024-02-26T10:38:40.959Z,100562.19
2024-02-26T10:41:08.023Z,100569.84
2024-02-26T10:43:34.530Z,100568.09
2024-02-26T10:46:01.079Z,100583.59
2024-02-26T10:48:27.838Z,100575.81
2024-02-26T10:50:54.664Z,100585.03
2024-02-26T10:53:22.392Z,100580.84
2024-02-26T10:56:02.929Z,100587.38
2024-02-26T10:58:30.094Z,100587.38
2024-02-26T11:00:58.070Z,100592.56
2024-02-26T11:03:26.095Z,100602.09
2024-02-26T11:05:53.869Z,100594.25
2024-02-26T11:08:25.819Z,100619.06
2024-02-26T11:10:55.000Z,100606.22
2024-02-26T11:13:22.832Z,100608.72
2024-02-26T11:15:51.455Z,100611.09
2024-02-26T11:18:20.648Z,100620.72
2024-02-26T11:20:49.328Z,100618.97
2024-02-26T11:23:16.486Z,100622.41
2024-02-26T11:25:43.612Z,100628.66
2024-02-26T11:28:13.851Z,100623.53
2024-02-26T11:30:45.707Z,100633.84
2024-02-26T11:33:13.736Z,100631.41
2024-02-26T11:35:40.842Z,100639.06
2024-02-26T11:38:08.646Z,100634.09
2024-02-26T11:40:40.883Z,100643.41
2024-02-26T11:43:07.443Z,100644.09
2024-02-26T11:45:40.114Z,100644.81
2024-02-26T11:48:14.138Z,100646.44
2024-02-26T11:50:42.438Z,100648.25
2024-02-26T11:53:27.232Z,100658.31
2024-02-26T11:56:18.383Z,100656.53
2024-02-26T11:58:45.179Z,100660.75
2024-02-26T12:01:38.511Z,100664.84
2024-02-26T12:04:12.787Z,100667.50
2024-02-26T12:06:53.920Z,100669.03
2024-02-26T12:09:40.435Z,100669.03
2024-02-26T12:12:09.641Z,100678.84
2024-02-26T12:14:52.746Z,100673.59
2024-02-26T12:17:24.641Z,100685.69
2024-02-26T12:19:52.853Z,100685.56
2024-02-26T12:22:20.554Z,100689.41
2024-02-26T12:24:47.108Z,100688.38
2024-02-26T12:27:16.214Z,100684.00
2024-02-26T12:29:42.885Z,100701.31
2024-02-26T12:32:09.441Z,100696.97
2024-02-26T12:34:36.697Z,100707.13
2024-02-26T12:37:03.433Z,100700.81
2024-02-26T12:39:31.523Z,100694.97
2024-02-26T12:42:00.614Z,100706.81
2024-02-26T12:44:27.817Z,100699.94
2024-02-26T12:47:04.953Z,100709.06
2024-02-26T12:49:32.591Z,100704.88
2024-02-26T12:52:02.836Z,100708.59
2024-02-26T12:54:32.878Z,100718.81
2024-02-26T12:57:01.866Z,100716.06
2024-02-26T12:59:29.064Z,100721.34
2024-02-26T13:01:55.929Z,100723.00
2024-02-26T13:04:22.527Z,100727.38
2024-02-26T13:06:49.191Z,100735.78
2024-02-26T13:09:16.250Z,100729.03
2024-02-26T13:11:42.779Z,100730.00
2024-02-26T13:14:09.958Z,100744.47
2024-02-26T13:16:36.709Z,100747.31
2024-02-26T13:19:11.437Z,100738.38
2024-02-26T13:21:38.090Z,100738.50
2024-02-26T13:24:05.807Z,100746.34
2024-02-26T13:26:32.297Z,100749.72
2024-02-26T13:29:04.646Z,100752.88
2024-02-26T13:31:31.362Z,100760.06
2024-02-26T13:33:58.114Z,100761.84
2024-02-26T13:36:25.417Z,100763.50
2024-02-26T13:38:54.250Z,100767.66
2024-02-26T13:41:20.964Z,100765.31
2024-02-26T13:43:47.872Z,100761.69
2024-02-26T13:46:16.184Z,100772.16
2024-02-26T13:48:43.429Z,100776.56
2024-02-26T13:51:10.428Z,100780.22
2024-02-26T13:53:36.868Z,100783.75
2024-02-26T13:56:06.610Z,100787.03
2024-02-26T13:58:33.118Z,100789.63
2024-02-26T14:01:00.891Z,100792.94
2024-02-26T14:03:27.648Z,100802.59
2024-02-26T14:05:54.464Z,100798.00
2024-02-26T14:08:21.861Z,100805.59
2024-02-26T14:10:48.434Z,100804.69
2024-02-26T14:13:14.986Z,100804.38
2024-02-26T14:15:41.571Z,100810.22
2024-02-26T14:18:09.072Z,100817.22
2024-02-26T14:20:36.046Z,100815.41
2024-02-26T14:23:02.473Z,100812.88
2024-02-26T14:25:31.283Z,100814.63
2024-02-26T14:27:59.396Z,100815.47
2024-02-26T14:30:27.256Z,100821.53
2024-02-26T14:32:53.972Z,100834.41
2024-02-26T14:35:20.665Z,100830.91
2024-02-26T14:37:49.004Z,100833.31
2024-02-26T14:40:16.861Z,100839.38
2024-02-26T14:42:43.798Z,100840.50
2024-02-26T14:45:10.778Z,100844.72
2024-02-26T14:47:37.433Z,100854.94
2024-02-26T14:50:05.316Z,100847.16
2024-02-26T14:52:32.003Z,100860.22
2024-02-26T14:54:58.557Z,100869.63
2024-02-26T14:57:26.064Z,100868.84
2024-02-26T14:59:52.752Z,100873.28
2024-02-26T15:02:19.409Z,100884.41
2024-02-26T15:04:46.212Z,100887.97
2024-02-26T15:07:16.321Z,100883.66
2024-02-26T15:09:43.371Z,100882.63
2024-02-26T15:12:10.500Z,100890.41
2024-02-26T15:14:37.023Z,100886.19
2024-02-26T15:17:04.406Z,100896.63
2024-02-26T15:19:31.145Z,100893.06
2024-02-26T15:21:57.721Z,100897.31
2024-02-26T15:24:24.268Z,100900.72
2024-02-26T15:26:50.750Z,100903.19
2024-02-26T15:29:17.204Z,100898.00
2024-02-26T15:31:43.692Z,100910.91
2024-02-26T15:34:10.782Z,100917.81
2024-02-26T15:36:37.539Z,100923.94
2024-02-26T15:39:04.612Z,100925.63
2024-02-26T15:41:31.587Z,100929.22
2024-02-26T15:44:00.299Z,100932.63
2024-02-26T15:46:27.074Z,100943.06
2024-02-26T15:48:53.694Z,100942.19
2024-02-26T15:51:27.249Z,100946.50
2024-02-26T15:53:54.667Z,100955.19
2024-02-26T15:56:25.131Z,100949.09
2024-02-26T15:58:52.542Z,100955.84
2024-02-26T16:01:24.164Z,100956.03
2024-02-26T16:03:52.296Z,100971.78
2024-02-26T16:06:30.261Z,100973.44
2024-02-26T16:08:56.970Z,100973.63
2024-02-26T16:11:23.527Z,100980.59
2024-02-26T16:13:54.502Z,100984.91
2024-02-26T16:16:27.552Z,100989.31
2024-02-26T16:19:06.718Z,100996.16
2024-02-26T16:21:33.464Z,100999.16
2024-02-26T16:24:00.603Z,101008.84
2024-02-26T16:26:27.174Z,101007.91
2024-02-26T16:28:53.576Z,101019.25
2024-02-26T16:31:20.101Z,101031.47
2024-02-26T16:33:46.845Z,101032.56
2024-02-26T16:36:13.701Z,101036.19
2024-02-26T16:38:40.662Z,101034.69
2024-02-26T16:41:07.220Z,101040.97
2024-02-26T16:43:36.087Z,101043.69
2024-02-26T16:46:02.842Z,101047.25
2024-02-26T16:48:35.312Z,101053.38
2024-02-26T16:51:03.684Z,101056.31
2024-02-26T16:53:30.442Z,101052.97
2024-02-26T16:55:58.684Z,101046.16
2024-02-26T16:58:26.050Z,101058.22
2024-02-26T17:00:52.737Z,101061.00
2024-02-26T17:03:19.334Z,101068.84
2024-02-26T17:05:46.130Z,101069.84
2024-02-26T17:08:13.063Z,101074.16
2024-02-26T17:10:39.635Z,101073.44
2024-02-26T17:13:06.118Z,101087.34
2024-02-26T17:15:32.860Z,101084.81
2024-02-26T17:17:59.624Z,101092.72
2024-02-26T17:20:26.136Z,101099.78
2024-02-26T17:22:52.727Z,101104.88
2024-02-26T17:25:20.429Z,101112.06
2024-02-26T17:27:46.927Z,101118.22
2024-02-26T17:30:13.683Z,101127.75
2024-02-26T17:32:40.259Z,101137.34
2024-02-26T17:35:07.938Z,101130.47
2024-02-26T17:37:34.777Z,101134.06
2024-02-26T17:40:01.271Z,101140.09
2024-02-26T17:42:28.082Z,101150.44
2024-02-26T17:44:54.794Z,101153.91
2024-02-26T17:47:21.322Z,101161.66
2024-02-26T17:49:47.914Z,101163.41
2024-02-26T17:52:14.738Z,101160.03
2024-02-26T17:54:41.272Z,101166.81
2024-02-26T17:57:07.968Z,101176.16
2024-02-26T17:59:34.438Z,101173.69
2024-02-26T18:02:00.926Z,101185.63
2024-02-26T18:04:27.537Z,101200.31
2024-02-26T18:06:54.206Z,101208.06
2024-02-26T18:09:20.778Z,101207.38
2024-02-26T18:11:47.577Z,101205.84
2024-02-26T18:14:14.154Z,101214.56
2024-02-26T18:16:40.791Z,101209.53
2024-02-26T18:19:07.431Z,101227.78
2024-02-26T18:21:34.748Z,101227.03
2024-02-26T18:24:01.410Z,101222.69
2024-02-26T18:26:28.937Z,101219.34
2024-02-26T18:28:55.421Z,101230.44
2024-02-26T18:31:22.187Z,101231.31
2024-02-26T18:33:49.047Z,101243.50
2024-02-26T18:36:17.336Z,101238.50
2024-02-26T18:38:44.370Z,101248.75
2024-02-26T18:41:19.692Z,101253.88
2024-02-26T18:43:46.710Z,101264.47
2024-02-26T18:46:13.961Z,101258.50
2024-02-26T18:48:40.785Z,101268.72
2024-02-26T18:51:07.358Z,101282.56
2024-02-26T18:53:33.913Z,101275.72
2024-02-26T18:56:00.331Z,101280.06
2024-02-26T18:58:26.866Z,101282.75
2024-02-26T19:00:53.473Z,101292.19
2024-02-26T19:03:37.502Z,101292.28
2024-02-26T19:06:06.500Z,101299.22
2024-02-26T19:08:33.044Z,101309.56
2024-02-26T19:11:00.389Z,101312.97
2024-02-26T19:13:27.305Z,101314.59
2024-02-26T19:15:53.832Z,101323.22
2024-02-26T19:18:20.468Z,101336.13
2024-02-26T19:20:48.080Z,101337.91
2024-02-26T19:23:14.901Z,101342.97
2024-02-26T19:25:43.512Z,101349.94
2024-02-26T19:28:10.210Z,101356.81
2024-02-26T19:30:36.817Z,101358.63
2024-02-26T19:33:04.609Z,101362.03
2024-02-26T19:35:31.210Z,101358.63
2024-02-26T19:37:57.779Z,101370.81
2024-02-26T19:40:24.727Z,101367.34
2024-02-26T19:42:51.168Z,101372.47
2024-02-26T19:45:17.727Z,101379.28
2024-02-26T19:47:44.379Z,101381.03
2024-02-26T19:50:10.946Z,101381.09
2024-02-26T19:52:37.586Z,101380.19
2024-02-26T19:55:04.609Z,101398.38
2024-02-26T19:57:31.568Z,101387.25
2024-02-26T19:59:58.693Z,101402.75
2024-02-26T20:02:25.664Z,101405.41
2024-02-26T20:04:52.205Z,101407.13
2024-02-26T20:07:21.526Z,101407.19
2024-02-26T20:09:48.695Z,101417.59
2024-02-26T20:12:15.812Z,101419.31
2024-02-26T20:14:45.455Z,101427.91
2024-02-26T20:17:12.060Z,101429.66
2024-02-26T20:19:38.778Z,101445.22
2024-02-26T20:22:05.472Z,101442.59
2024-02-26T20:24:32.047Z,101444.41
2024-02-26T20:27:01.676Z,101453.91
2024-02-26T20:29:28.267Z,101453.13
2024-02-26T20:31:54.768Z,101450.69
2024-02-26T20:34:21.455Z,101460.25
2024-02-26T20:36:48.151Z,101464.50
2024-02-26T20:39:14.898Z,101465.34
2024-02-26T20:41:41.906Z,101465.44
2024-02-26T20:44:08.550Z,101463.81
2024-02-26T20:46:35.108Z,101461.19
2024-02-26T20:49:01.913Z,101468.09
2024-02-26T20:51:30.235Z,101465.44
2024-02-26T20:53:58.372Z,101473.22
2024-02-26T20:56:25.102Z,101473.31
2024-02-26T20:58:51.716Z,101478.41
2024-02-26T21:01:18.617Z,101482.75
2024-02-26T21:03:45.120Z,101487.09
2024-02-26T21:06:11.732Z,101492.28
2024-02-26T21:08:38.733Z,101499.06
2024-02-26T21:11:06.431Z,101499.81
2024-02-26T21:13:33.643Z,101500.81
2024-02-26T21:16:00.920Z,101508.50
2024-02-26T21:18:27.892Z,101511.91
2024-02-26T21:20:55.559Z,101517.06
2024-02-26T21:23:22.435Z,101517.00
2024-02-26T21:25:48.976Z,101515.28
2024-02-26T21:28:15.434Z,101519.59
2024-02-26T21:30:42.008Z,101517.91
2024-02-26T21:33:08.785Z,101525.66
2024-02-26T21:35:35.504Z,101525.66
2024-02-26T21:38:02.678Z,101532.56
2024-02-26T21:40:29.162Z,101530.91
2024-02-26T21:42:55.718Z,101534.31
2024-02-26T21:45:24.585Z,101536.06
2024-02-26T21:47:51.370Z,101544.66
2024-02-26T21:50:17.946Z,101546.44
2024-02-26T21:52:44.832Z,101550.75
2024-02-26T21:55:14.217Z,101550.75
2024-02-26T21:57:41.000Z,101551.59
2024-02-26T22:00:08.212Z,101548.22
2024-02-26T22:02:34.731Z,101558.56
2024-02-26T22:05:01.959Z,101556.88
2024-02-26T22:07:28.724Z,101561.09
2024-02-26T22:09:55.409Z,101569.69
2024-02-26T22:12:21.978Z,101564.44
2024-02-26T22:14:48.865Z,101567.09
2024-02-26T22:17:15.390Z,101573.94
2024-02-26T22:19:42.017Z,101565.31
2024-02-26T22:22:08.546Z,101573.81
2024-02-26T22:24:36.290Z,101559.13
2024-02-26T22:27:03.298Z,101571.31
2024-02-26T22:29:30.708Z,101579.91
2024-02-26T22:32:00.533Z,101579.91
2024-02-26T22:34:28.048Z,101577.34
2024-02-26T22:36:54.643Z,101581.72
2024-02-26T22:39:22.888Z,101584.28
2024-02-26T22:41:49.732Z,101591.22
2024-02-26T22:44:16.543Z,101601.56
2024-02-26T22:46:43.122Z,101601.56
2024-02-26T22:49:09.679Z,101606.00
2024-02-26T22:51:36.304Z,101599.22
2024-02-26T22:54:03.401Z,101608.72
2024-02-26T22:56:29.914Z,101607.06
2024-02-26T22:58:56.435Z,101611.53
2024-02-26T23:01:25.289Z,101607.28
2024-02-26T23:03:52.122Z,101615.03
2024-02-26T23:06:19.001Z,101609.88
2024-02-26T23:08:45.548Z,101608.22
2024-02-26T23:11:12.136Z,101612.56
2024-02-26T23:13:39.853Z,101609.97
2024-02-26T23:16:06.689Z,101624.69
2024-02-26T23:18:33.320Z,101624.78
2024-02-26T23:21:00.056Z,101628.16
2024-02-26T23:23:26.671Z,101623.88
2024-02-26T23:25:53.668Z,101639.44
2024-02-26T23:28:20.245Z,101635.97
2024-02-26T23:30:46.853Z,101635.13
2024-02-26T23:33:13.621Z,101627.38
2024-02-26T23:35:40.179Z,101624.72
2024-02-26T23:38:06.961Z,101630.03
2024-02-26T23:40:34.877Z,101636.88
2024-02-26T23:43:02.569Z,101634.31
2024-02-26T23:45:29.582Z,101638.72
2024-02-26T23:47:56.329Z,101648.22
2024-02-26T23:50:24.879Z,101640.50
2024-02-26T23:52:52.177Z,101642.25
2024-02-26T23:55:19.171Z,101640.53
2024-02-26T23:57:45.683Z,101639.66
